sensor_id;sensor_type;location;lat;lon;timestamp;temperature;humidity
56861;DHT22;42744;51.094;3.490;2022-10-17T00:01:35;14.60;99.90
56861;DHT22;42744;51.094;3.490;2022-10-17T00:04:01;14.60;99.90
56861;DHT22;42744;51.094;3.490;2022-10-17T00:06:27;14.60;99.90
56861;DHT22;42744;51.094;3.490;2022-10-17T00:08:53;14.60;99.90
56861;DHT22;42744;51.094;3.490;2022-10-17T00:11:21;14.60;99.90
56861;DHT22;42744;51.094;3.490;2022-10-17T00:13:50;14.60;99.90
56861;DHT22;42744;51.094;3.490;2022-10-17T00:16:27;14.60;99.90
56861;DHT22;42744;51.094;3.490;2022-10-17T00:18:54;14.60;99.90
56861;DHT22;42744;51.094;3.490;2022-10-17T00:21:21;14.60;99.90
56861;DHT22;42744;51.094;3.490;2022-10-17T00:23:47;14.60;99.90
56861;DHT22;42744;51.094;3.490;2022-10-17T00:26:15;14.60;99.90
56861;DHT22;42744;51.094;3.490;2022-10-17T00:28:41;14.70;99.90
56861;DHT22;42744;51.094;3.490;2022-10-17T00:31:09;14.70;99.90
56861;DHT22;42744;51.094;3.490;2022-10-17T00:33:35;14.70;99.90
56861;DHT22;42744;51.094;3.490;2022-10-17T00:36:22;14.80;99.90
56861;DHT22;42744;51.094;3.490;2022-10-17T00:38:52;14.80;99.90
56861;DHT22;42744;51.094;3.490;2022-10-17T00:41:20;14.80;99.90
56861;DHT22;42744;51.094;3.490;2022-10-17T00:46:49;14.90;99.90
56861;DHT22;42744;51.094;3.490;2022-10-17T00:49:14;15.00;99.90
56861;DHT22;42744;51.094;3.490;2022-10-17T00:51:44;15.00;99.90
56861;DHT22;42744;51.094;3.490;2022-10-17T00:54:13;15.10;99.90
56861;DHT22;42744;51.094;3.490;2022-10-17T00:56:40;15.10;99.90
56861;DHT22;42744;51.094;3.490;2022-10-17T00:59:11;15.20;99.90
56861;DHT22;42744;51.094;3.490;2022-10-17T01:01:40;15.20;99.90
56861;DHT22;42744;51.094;3.490;2022-10-17T01:04:07;15.20;99.90
56861;DHT22;42744;51.094;3.490;2022-10-17T01:06:33;15.30;99.90
56861;DHT22;42744;51.094;3.490;2022-10-17T01:08:59;15.20;99.90
56861;DHT22;42744;51.094;3.490;2022-10-17T01:11:46;15.20;99.90
56861;DHT22;42744;51.094;3.490;2022-10-17T01:14:31;15.30;99.90
56861;DHT22;42744;51.094;3.490;2022-10-17T01:31:34;15.40;99.90
56861;DHT22;42744;51.094;3.490;2022-10-17T01:34:14;15.50;99.90
56861;DHT22;42744;51.094;3.490;2022-10-17T01:37:05;15.50;99.90
56861;DHT22;42744;51.094;3.490;2022-10-17T01:39:43;15.50;99.90
56861;DHT22;42744;51.094;3.490;2022-10-17T01:44:54;15.50;99.90
56861;DHT22;42744;51.094;3.490;2022-10-17T01:47:27;15.50;99.90
56861;DHT22;42744;51.094;3.490;2022-10-17T01:49:58;15.50;99.90
56861;DHT22;42744;51.094;3.490;2022-10-17T01:52:43;15.50;99.90
56861;DHT22;42744;51.094;3.490;2022-10-17T01:55:38;15.50;99.90
56861;DHT22;42744;51.094;3.490;2022-10-17T01:58:12;15.50;99.90
56861;DHT22;42744;51.094;3.490;2022-10-17T02:00:39;15.40;99.90
56861;DHT22;42744;51.094;3.490;2022-10-17T02:03:11;15.50;99.90
56861;DHT22;42744;51.094;3.490;2022-10-17T02:05:40;15.50;99.90
56861;DHT22;42744;51.094;3.490;2022-10-17T02:08:09;15.50;99.90
56861;DHT22;42744;51.094;3.490;2022-10-17T02:10:46;15.50;99.90
56861;DHT22;42744;51.094;3.490;2022-10-17T02:16:37;15.50;99.90
56861;DHT22;42744;51.094;3.490;2022-10-17T02:22:34;15.50;99.90
56861;DHT22;42744;51.094;3.490;2022-10-17T02:25:10;15.40;99.90
56861;DHT22;42744;51.094;3.490;2022-10-17T02:27:52;15.40;99.90
56861;DHT22;42744;51.094;3.490;2022-10-17T02:33:10;15.50;99.90
56861;DHT22;42744;51.094;3.490;2022-10-17T02:35:42;15.50;99.90
56861;DHT22;42744;51.094;3.490;2022-10-17T02:38:11;15.50;99.90
56861;DHT22;42744;51.094;3.490;2022-10-17T02:40:41;15.50;99.90
56861;DHT22;42744;51.094;3.490;2022-10-17T02:43:09;15.50;99.90
56861;DHT22;42744;51.094;3.490;2022-10-17T02:45:36;15.50;99.90
56861;DHT22;42744;51.094;3.490;2022-10-17T02:53:51;15.50;99.90
56861;DHT22;42744;51.094;3.490;2022-10-17T02:56:20;15.60;99.90
56861;DHT22;42744;51.094;3.490;2022-10-17T02:58:53;15.60;99.90
56861;DHT22;42744;51.094;3.490;2022-10-17T03:01:22;15.60;99.90
56861;DHT22;42744;51.094;3.490;2022-10-17T03:03:49;15.70;99.90
56861;DHT22;42744;51.094;3.490;2022-10-17T03:06:15;15.70;99.90
56861;DHT22;42744;51.094;3.490;2022-10-17T03:08:41;15.80;99.90
56861;DHT22;42744;51.094;3.490;2022-10-17T03:11:07;15.80;99.90
56861;DHT22;42744;51.094;3.490;2022-10-17T03:13:33;15.90;99.90
56861;DHT22;42744;51.094;3.490;2022-10-17T03:15:59;15.90;99.90
56861;DHT22;42744;51.094;3.490;2022-10-17T03:18:26;16.00;99.90
56861;DHT22;42744;51.094;3.490;2022-10-17T03:20:53;16.00;99.90
56861;DHT22;42744;51.094;3.490;2022-10-17T03:23:19;16.00;99.90
56861;DHT22;42744;51.094;3.490;2022-10-17T03:25:46;16.10;99.90
56861;DHT22;42744;51.094;3.490;2022-10-17T03:28:12;16.10;99.90
56861;DHT22;42744;51.094;3.490;2022-10-17T03:30:38;16.10;99.90
56861;DHT22;42744;51.094;3.490;2022-10-17T03:33:05;16.10;99.90
56861;DHT22;42744;51.094;3.490;2022-10-17T03:35:31;16.10;99.90
56861;DHT22;42744;51.094;3.490;2022-10-17T03:37:57;16.10;99.90
56861;DHT22;42744;51.094;3.490;2022-10-17T03:40:25;16.20;99.90
56861;DHT22;42744;51.094;3.490;2022-10-17T03:42:51;16.20;99.90
56861;DHT22;42744;51.094;3.490;2022-10-17T03:45:17;16.20;99.90
56861;DHT22;42744;51.094;3.490;2022-10-17T03:47:44;16.20;99.90
56861;DHT22;42744;51.094;3.490;2022-10-17T03:50:10;16.20;99.90
56861;DHT22;42744;51.094;3.490;2022-10-17T03:52:37;16.20;99.90
56861;DHT22;42744;51.094;3.490;2022-10-17T03:55:03;16.30;99.90
56861;DHT22;42744;51.094;3.490;2022-10-17T03:57:29;16.30;99.90
56861;DHT22;42744;51.094;3.490;2022-10-17T03:59:55;16.30;99.90
56861;DHT22;42744;51.094;3.490;2022-10-17T04:02:22;16.30;99.90
56861;DHT22;42744;51.094;3.490;2022-10-17T04:04:48;16.30;99.90
56861;DHT22;42744;51.094;3.490;2022-10-17T04:07:14;16.40;99.90
56861;DHT22;42744;51.094;3.490;2022-10-17T04:09:41;16.40;99.90
56861;DHT22;42744;51.094;3.490;2022-10-17T04:12:08;16.40;99.90
56861;DHT22;42744;51.094;3.490;2022-10-17T04:14:36;16.40;99.90
56861;DHT22;42744;51.094;3.490;2022-10-17T04:17:03;16.40;99.90
56861;DHT22;42744;51.094;3.490;2022-10-17T04:19:29;16.40;99.90
56861;DHT22;42744;51.094;3.490;2022-10-17T04:21:55;16.40;99.90
56861;DHT22;42744;51.094;3.490;2022-10-17T04:24:21;16.40;99.90
56861;DHT22;42744;51.094;3.490;2022-10-17T04:26:49;16.40;99.90
56861;DHT22;42744;51.094;3.490;2022-10-17T04:29:16;16.40;99.90
56861;DHT22;42744;51.094;3.490;2022-10-17T04:31:42;16.40;99.90
56861;DHT22;42744;51.094;3.490;2022-10-17T04:34:09;16.40;99.90
56861;DHT22;42744;51.094;3.490;2022-10-17T04:36:34;16.40;99.90
56861;DHT22;42744;51.094;3.490;2022-10-17T04:39:01;16.40;99.90
56861;DHT22;42744;51.094;3.490;2022-10-17T04:41:29;16.40;99.90
56861;DHT22;42744;51.094;3.490;2022-10-17T04:43:56;16.40;99.90
56861;DHT22;42744;51.094;3.490;2022-10-17T04:46:22;16.40;99.90
56861;DHT22;42744;51.094;3.490;2022-10-17T04:48:48;16.40;99.90
56861;DHT22;42744;51.094;3.490;2022-10-17T04:51:17;16.40;99.90
56861;DHT22;42744;51.094;3.490;2022-10-17T04:53:44;16.40;99.90
56861;DHT22;42744;51.094;3.490;2022-10-17T04:56:22;16.40;99.90
56861;DHT22;42744;51.094;3.490;2022-10-17T04:58:49;16.40;99.90
56861;DHT22;42744;51.094;3.490;2022-10-17T05:01:17;16.40;99.90
56861;DHT22;42744;51.094;3.490;2022-10-17T05:03:45;16.30;99.90
56861;DHT22;42744;51.094;3.490;2022-10-17T05:06:16;16.30;99.90
56861;DHT22;42744;51.094;3.490;2022-10-17T05:08:45;16.30;99.90
56861;DHT22;42744;51.094;3.490;2022-10-17T05:11:19;16.30;99.90
56861;DHT22;42744;51.094;3.490;2022-10-17T05:13:57;16.30;99.90
56861;DHT22;42744;51.094;3.490;2022-10-17T05:16:24;16.30;99.90
56861;DHT22;42744;51.094;3.490;2022-10-17T05:18:53;16.30;99.90
56861;DHT22;42744;51.094;3.490;2022-10-17T05:21:21;16.30;99.90
56861;DHT22;42744;51.094;3.490;2022-10-17T05:23:48;16.40;99.90
56861;DHT22;42744;51.094;3.490;2022-10-17T05:26:15;16.40;99.90
56861;DHT22;42744;51.094;3.490;2022-10-17T05:28:41;16.40;99.90
56861;DHT22;42744;51.094;3.490;2022-10-17T05:31:09;16.40;99.90
56861;DHT22;42744;51.094;3.490;2022-10-17T05:33:36;16.50;99.90
56861;DHT22;42744;51.094;3.490;2022-10-17T05:36:03;16.50;99.90
56861;DHT22;42744;51.094;3.490;2022-10-17T05:38:29;16.50;99.90
56861;DHT22;42744;51.094;3.490;2022-10-17T05:41:00;16.50;99.90
56861;DHT22;42744;51.094;3.490;2022-10-17T05:43:27;16.50;99.90
56861;DHT22;42744;51.094;3.490;2022-10-17T05:45:53;16.60;99.90
56861;DHT22;42744;51.094;3.490;2022-10-17T05:48:23;16.60;99.90
56861;DHT22;42744;51.094;3.490;2022-10-17T05:50:55;16.60;99.90
56861;DHT22;42744;51.094;3.490;2022-10-17T05:53:22;16.70;99.90
56861;DHT22;42744;51.094;3.490;2022-10-17T05:55:57;16.70;99.90
56861;DHT22;42744;51.094;3.490;2022-10-17T05:58:24;16.70;99.90
56861;DHT22;42744;51.094;3.490;2022-10-17T06:00:55;16.70;99.90
56861;DHT22;42744;51.094;3.490;2022-10-17T06:03:22;16.70;99.90
56861;DHT22;42744;51.094;3.490;2022-10-17T06:05:48;16.70;99.90
56861;DHT22;42744;51.094;3.490;2022-10-17T06:08:14;16.70;99.90
56861;DHT22;42744;51.094;3.490;2022-10-17T06:10:42;16.60;99.90
56861;DHT22;42744;51.094;3.490;2022-10-17T06:13:08;16.60;99.90
56861;DHT22;42744;51.094;3.490;2022-10-17T06:15:35;16.60;99.90
56861;DHT22;42744;51.094;3.490;2022-10-17T06:18:02;16.60;99.90
56861;DHT22;42744;51.094;3.490;2022-10-17T06:20:31;16.60;99.90
56861;DHT22;42744;51.094;3.490;2022-10-17T06:22:57;16.60;99.90
56861;DHT22;42744;51.094;3.490;2022-10-17T06:25:26;16.70;99.90
56861;DHT22;42744;51.094;3.490;2022-10-17T06:27:53;16.60;99.90
56861;DHT22;42744;51.094;3.490;2022-10-17T06:30:20;16.60;99.90
56861;DHT22;42744;51.094;3.490;2022-10-17T06:32:46;16.60;99.90
56861;DHT22;42744;51.094;3.490;2022-10-17T06:35:12;16.60;99.90
56861;DHT22;42744;51.094;3.490;2022-10-17T06:37:40;16.60;99.90
56861;DHT22;42744;51.094;3.490;2022-10-17T06:40:07;16.60;99.90
56861;DHT22;42744;51.094;3.490;2022-10-17T06:42:36;16.60;99.90
56861;DHT22;42744;51.094;3.490;2022-10-17T06:45:04;16.60;99.90
56861;DHT22;42744;51.094;3.490;2022-10-17T06:47:30;16.60;99.90
56861;DHT22;42744;51.094;3.490;2022-10-17T06:49:57;16.60;99.90
56861;DHT22;42744;51.094;3.490;2022-10-17T06:52:23;16.60;99.90
56861;DHT22;42744;51.094;3.490;2022-10-17T06:54:49;16.60;99.90
56861;DHT22;42744;51.094;3.490;2022-10-17T06:57:17;16.50;99.90
56861;DHT22;42744;51.094;3.490;2022-10-17T06:59:44;16.50;99.90
56861;DHT22;42744;51.094;3.490;2022-10-17T07:02:11;16.50;99.90
56861;DHT22;42744;51.094;3.490;2022-10-17T07:04:37;16.50;99.90
56861;DHT22;42744;51.094;3.490;2022-10-17T07:07:04;16.50;99.90
56861;DHT22;42744;51.094;3.490;2022-10-17T07:09:31;16.50;99.90
56861;DHT22;42744;51.094;3.490;2022-10-17T07:11:58;16.50;99.90
56861;DHT22;42744;51.094;3.490;2022-10-17T07:14:25;16.50;99.90
56861;DHT22;42744;51.094;3.490;2022-10-17T07:16:57;16.50;99.90
56861;DHT22;42744;51.094;3.490;2022-10-17T07:19:25;16.50;99.90
56861;DHT22;42744;51.094;3.490;2022-10-17T07:21:52;16.40;99.90
56861;DHT22;42744;51.094;3.490;2022-10-17T07:24:19;16.40;99.90
56861;DHT22;42744;51.094;3.490;2022-10-17T07:26:45;16.50;99.90
56861;DHT22;42744;51.094;3.490;2022-10-17T07:29:11;16.50;99.90
56861;DHT22;42744;51.094;3.490;2022-10-17T07:31:38;16.40;99.90
56861;DHT22;42744;51.094;3.490;2022-10-17T07:34:04;16.50;99.90
56861;DHT22;42744;51.094;3.490;2022-10-17T07:36:30;16.40;99.90
56861;DHT22;42744;51.094;3.490;2022-10-17T07:38:57;16.50;99.90
56861;DHT22;42744;51.094;3.490;2022-10-17T07:41:23;16.50;99.90
56861;DHT22;42744;51.094;3.490;2022-10-17T07:43:49;16.50;99.90
56861;DHT22;42744;51.094;3.490;2022-10-17T07:46:17;16.40;99.90
56861;DHT22;42744;51.094;3.490;2022-10-17T07:48:43;16.40;99.90
56861;DHT22;42744;51.094;3.490;2022-10-17T07:51:09;16.40;99.90
56861;DHT22;42744;51.094;3.490;2022-10-17T07:53:38;16.50;99.90
56861;DHT22;42744;51.094;3.490;2022-10-17T07:56:06;16.40;99.90
56861;DHT22;42744;51.094;3.490;2022-10-17T07:58:33;16.50;99.90
56861;DHT22;42744;51.094;3.490;2022-10-17T08:01:01;16.50;99.90
56861;DHT22;42744;51.094;3.490;2022-10-17T08:03:27;16.50;99.90
56861;DHT22;42744;51.094;3.490;2022-10-17T08:05:57;16.50;99.90
56861;DHT22;42744;51.094;3.490;2022-10-17T08:08:23;16.50;99.90
56861;DHT22;42744;51.094;3.490;2022-10-17T08:10:49;16.50;99.90
56861;DHT22;42744;51.094;3.490;2022-10-17T08:13:15;16.50;99.90
56861;DHT22;42744;51.094;3.490;2022-10-17T08:15:41;16.50;99.90
56861;DHT22;42744;51.094;3.490;2022-10-17T08:18:07;16.50;99.90
56861;DHT22;42744;51.094;3.490;2022-10-17T08:20:33;16.60;99.90
56861;DHT22;42744;51.094;3.490;2022-10-17T08:22:59;16.60;99.90
56861;DHT22;42744;51.094;3.490;2022-10-17T08:25:25;16.60;99.90
56861;DHT22;42744;51.094;3.490;2022-10-17T08:27:51;16.60;99.90
56861;DHT22;42744;51.094;3.490;2022-10-17T08:30:17;16.60;99.90
56861;DHT22;42744;51.094;3.490;2022-10-17T08:32:43;16.60;99.90
56861;DHT22;42744;51.094;3.490;2022-10-17T08:35:10;16.60;99.90
56861;DHT22;42744;51.094;3.490;2022-10-17T08:37:35;16.70;99.90
56861;DHT22;42744;51.094;3.490;2022-10-17T08:40:02;16.70;99.90
56861;DHT22;42744;51.094;3.490;2022-10-17T08:48:17;16.60;99.90
56861;DHT22;42744;51.094;3.490;2022-10-17T08:56:43;16.60;99.90
56861;DHT22;42744;51.094;3.490;2022-10-17T08:59:16;16.60;99.90
56861;DHT22;42744;51.094;3.490;2022-10-17T09:04:48;16.60;99.90
56861;DHT22;42744;51.094;3.490;2022-10-17T09:13:31;16.60;99.90
56861;DHT22;42744;51.094;3.490;2022-10-17T09:18:30;16.60;99.90
56861;DHT22;42744;51.094;3.490;2022-10-17T09:21:20;16.60;99.90
56861;DHT22;42744;51.094;3.490;2022-10-17T09:23:56;16.60;99.90
56861;DHT22;42744;51.094;3.490;2022-10-17T09:26:24;16.70;99.90
56861;DHT22;42744;51.094;3.490;2022-10-17T09:28:53;16.70;99.90
56861;DHT22;42744;51.094;3.490;2022-10-17T09:31:28;16.70;99.90
56861;DHT22;42744;51.094;3.490;2022-10-17T09:33:58;16.70;99.90
56861;DHT22;42744;51.094;3.490;2022-10-17T09:36:29;16.70;99.90
56861;DHT22;42744;51.094;3.490;2022-10-17T09:38:59;16.70;99.90
56861;DHT22;42744;51.094;3.490;2022-10-17T09:41:26;16.80;99.90
56861;DHT22;42744;51.094;3.490;2022-10-17T09:43:56;16.80;99.90
56861;DHT22;42744;51.094;3.490;2022-10-17T09:46:30;16.70;99.90
56861;DHT22;42744;51.094;3.490;2022-10-17T09:49:01;16.70;99.90
56861;DHT22;42744;51.094;3.490;2022-10-17T09:51:30;16.80;99.90
56861;DHT22;42744;51.094;3.490;2022-10-17T09:54:02;16.80;99.90
56861;DHT22;42744;51.094;3.490;2022-10-17T09:56:28;16.80;99.90
56861;DHT22;42744;51.094;3.490;2022-10-17T09:58:57;16.80;99.90
56861;DHT22;42744;51.094;3.490;2022-10-17T10:01:26;16.80;99.90
56861;DHT22;42744;51.094;3.490;2022-10-17T10:06:34;16.80;99.90
56861;DHT22;42744;51.094;3.490;2022-10-17T10:09:00;16.80;99.90
56861;DHT22;42744;51.094;3.490;2022-10-17T10:11:54;16.90;99.90
56861;DHT22;42744;51.094;3.490;2022-10-17T10:14:30;16.90;99.90
56861;DHT22;42744;51.094;3.490;2022-10-17T10:17:01;16.90;99.90
56861;DHT22;42744;51.094;3.490;2022-10-17T10:19:31;17.00;99.90
56861;DHT22;42744;51.094;3.490;2022-10-17T10:22:07;17.10;99.90
56861;DHT22;42744;51.094;3.490;2022-10-17T10:24:39;17.00;99.90
56861;DHT22;42744;51.094;3.490;2022-10-17T10:27:14;17.10;99.90
56861;DHT22;42744;51.094;3.490;2022-10-17T10:29:48;17.10;99.90
56861;DHT22;42744;51.094;3.490;2022-10-17T10:32:24;17.10;99.90
56861;DHT22;42744;51.094;3.490;2022-10-17T10:34:54;17.10;99.90
56861;DHT22;42744;51.094;3.490;2022-10-17T10:37:27;17.20;99.90
56861;DHT22;42744;51.094;3.490;2022-10-17T10:39:57;17.20;99.90
56861;DHT22;42744;51.094;3.490;2022-10-17T10:42:36;17.30;99.90
56861;DHT22;42744;51.094;3.490;2022-10-17T10:45:15;17.50;99.90
56861;DHT22;42744;51.094;3.490;2022-10-17T10:50:45;17.60;99.90
56861;DHT22;42744;51.094;3.490;2022-10-17T10:53:25;17.60;99.90
56861;DHT22;42744;51.094;3.490;2022-10-17T10:56:02;17.60;99.90
56861;DHT22;42744;51.094;3.490;2022-10-17T11:04:07;17.80;99.90
56861;DHT22;42744;51.094;3.490;2022-10-17T11:06:38;17.90;99.90
56861;DHT22;42744;51.094;3.490;2022-10-17T11:11:54;18.00;99.90
56861;DHT22;42744;51.094;3.490;2022-10-17T11:14:46;18.00;99.90
56861;DHT22;42744;51.094;3.490;2022-10-17T11:17:39;18.00;99.90
56861;DHT22;42744;51.094;3.490;2022-10-17T11:22:48;18.10;99.90
56861;DHT22;42744;51.094;3.490;2022-10-17T11:25:36;18.10;99.90
56861;DHT22;42744;51.094;3.490;2022-10-17T11:28:08;18.10;99.90
56861;DHT22;42744;51.094;3.490;2022-10-17T11:33:18;18.20;99.90
56861;DHT22;42744;51.094;3.490;2022-10-17T11:35:47;18.20;99.90
56861;DHT22;42744;51.094;3.490;2022-10-17T11:38:37;18.20;99.90
56861;DHT22;42744;51.094;3.490;2022-10-17T11:41:05;18.20;99.90
56861;DHT22;42744;51.094;3.490;2022-10-17T11:51:13;18.20;99.90
56861;DHT22;42744;51.094;3.490;2022-10-17T12:02:02;18.10;99.90
56861;DHT22;42744;51.094;3.490;2022-10-17T12:07:21;18.10;99.90
56861;DHT22;42744;51.094;3.490;2022-10-17T12:09:58;18.20;99.90
56861;DHT22;42744;51.094;3.490;2022-10-17T12:12:31;18.20;99.90
56861;DHT22;42744;51.094;3.490;2022-10-17T12:17:59;18.20;99.90
56861;DHT22;42744;51.094;3.490;2022-10-17T12:20:33;18.20;99.90
56861;DHT22;42744;51.094;3.490;2022-10-17T12:23:19;18.20;99.90
56861;DHT22;42744;51.094;3.490;2022-10-17T12:31:10;18.20;99.90
56861;DHT22;42744;51.094;3.490;2022-10-17T12:33:54;18.20;99.90
56861;DHT22;42744;51.094;3.490;2022-10-17T12:46:55;18.30;99.90
56861;DHT22;42744;51.094;3.490;2022-10-17T12:58:09;18.60;99.90
56861;DHT22;42744;51.094;3.490;2022-10-17T13:03:10;18.80;99.90
56861;DHT22;42744;51.094;3.490;2022-10-17T13:05:40;18.80;99.90
56861;DHT22;42744;51.094;3.490;2022-10-17T13:10:55;18.80;99.90
56861;DHT22;42744;51.094;3.490;2022-10-17T13:13:44;18.80;99.90
56861;DHT22;42744;51.094;3.490;2022-10-17T13:16:33;18.80;99.90
56861;DHT22;42744;51.094;3.490;2022-10-17T13:19:02;18.90;99.90
56861;DHT22;42744;51.094;3.490;2022-10-17T13:21:29;18.90;99.90
56861;DHT22;42744;51.094;3.490;2022-10-17T13:23:55;19.00;99.90
56861;DHT22;42744;51.094;3.490;2022-10-17T13:26:26;19.00;99.90
56861;DHT22;42744;51.094;3.490;2022-10-17T13:29:05;19.10;99.90
56861;DHT22;42744;51.094;3.490;2022-10-17T13:31:39;19.10;99.90
56861;DHT22;42744;51.094;3.490;2022-10-17T13:34:15;19.20;99.90
56861;DHT22;42744;51.094;3.490;2022-10-17T13:36:42;19.30;99.90
56861;DHT22;42744;51.094;3.490;2022-10-17T13:39:13;19.30;99.90
56861;DHT22;42744;51.094;3.490;2022-10-17T13:41:40;19.30;99.90
56861;DHT22;42744;51.094;3.490;2022-10-17T13:44:12;19.30;99.90
56861;DHT22;42744;51.094;3.490;2022-10-17T13:46:39;19.30;99.90
56861;DHT22;42744;51.094;3.490;2022-10-17T13:49:35;19.20;99.90
56861;DHT22;42744;51.094;3.490;2022-10-17T13:52:05;19.20;99.90
56861;DHT22;42744;51.094;3.490;2022-10-17T13:54:43;19.10;99.90
56861;DHT22;42744;51.094;3.490;2022-10-17T13:57:22;19.10;99.90
56861;DHT22;42744;51.094;3.490;2022-10-17T13:59:53;19.20;99.90
56861;DHT22;42744;51.094;3.490;2022-10-17T14:02:23;19.10;99.90
56861;DHT22;42744;51.094;3.490;2022-10-17T14:07:37;19.10;99.90
56861;DHT22;42744;51.094;3.490;2022-10-17T14:10:06;19.10;99.90
56861;DHT22;42744;51.094;3.490;2022-10-17T14:12:42;19.00;99.90
56861;DHT22;42744;51.094;3.490;2022-10-17T14:15:12;19.00;99.90
56861;DHT22;42744;51.094;3.490;2022-10-17T14:17:39;19.00;99.90
56861;DHT22;42744;51.094;3.490;2022-10-17T14:20:05;18.90;99.90
56861;DHT22;42744;51.094;3.490;2022-10-17T14:22:34;18.90;99.90
56861;DHT22;42744;51.094;3.490;2022-10-17T14:25:02;18.90;99.90
56861;DHT22;42744;51.094;3.490;2022-10-17T14:27:32;18.80;99.90
56861;DHT22;42744;51.094;3.490;2022-10-17T14:30:05;18.80;99.90
56861;DHT22;42744;51.094;3.490;2022-10-17T14:32:36;18.80;99.90
56861;DHT22;42744;51.094;3.490;2022-10-17T14:35:03;18.80;99.90
56861;DHT22;42744;51.094;3.490;2022-10-17T14:40:03;18.80;99.90
56861;DHT22;42744;51.094;3.490;2022-10-17T14:42:29;18.70;99.90
56861;DHT22;42744;51.094;3.490;2022-10-17T14:45:03;18.70;99.90
56861;DHT22;42744;51.094;3.490;2022-10-17T14:47:30;18.70;99.90
56861;DHT22;42744;51.094;3.490;2022-10-17T14:52:36;18.70;99.90
56861;DHT22;42744;51.094;3.490;2022-10-17T14:55:22;18.60;99.90
56861;DHT22;42744;51.094;3.490;2022-10-17T14:57:48;18.60;99.90
56861;DHT22;42744;51.094;3.490;2022-10-17T15:00:16;18.60;99.90
56861;DHT22;42744;51.094;3.490;2022-10-17T15:02:44;18.60;99.90
56861;DHT22;42744;51.094;3.490;2022-10-17T15:05:10;18.60;99.90
56861;DHT22;42744;51.094;3.490;2022-10-17T15:07:36;18.50;99.90
56861;DHT22;42744;51.094;3.490;2022-10-17T15:10:03;18.50;99.90
56861;DHT22;42744;51.094;3.490;2022-10-17T15:12:29;18.50;99.90
56861;DHT22;42744;51.094;3.490;2022-10-17T15:14:56;18.50;99.90
56861;DHT22;42744;51.094;3.490;2022-10-17T15:17:28;18.50;99.90
56861;DHT22;42744;51.094;3.490;2022-10-17T15:19:55;18.40;99.90
56861;DHT22;42744;51.094;3.490;2022-10-17T15:22:22;18.40;99.90
56861;DHT22;42744;51.094;3.490;2022-10-17T15:24:51;18.40;99.90
56861;DHT22;42744;51.094;3.490;2022-10-17T15:27:20;18.30;99.90
56861;DHT22;42744;51.094;3.490;2022-10-17T15:29:47;18.30;99.90
56861;DHT22;42744;51.094;3.490;2022-10-17T15:32:13;18.30;99.90
56861;DHT22;42744;51.094;3.490;2022-10-17T15:34:40;18.30;99.90
56861;DHT22;42744;51.094;3.490;2022-10-17T15:37:17;18.30;99.90
56861;DHT22;42744;51.094;3.490;2022-10-17T15:39:51;18.30;99.90
56861;DHT22;42744;51.094;3.490;2022-10-17T15:42:24;18.20;99.90
56861;DHT22;42744;51.094;3.490;2022-10-17T15:44:51;18.20;99.90
56861;DHT22;42744;51.094;3.490;2022-10-17T15:47:25;18.20;99.90
56861;DHT22;42744;51.094;3.490;2022-10-17T15:49:54;18.20;99.90
56861;DHT22;42744;51.094;3.490;2022-10-17T15:52:20;18.10;99.90
56861;DHT22;42744;51.094;3.490;2022-10-17T15:54:46;18.10;99.90
56861;DHT22;42744;51.094;3.490;2022-10-17T15:57:17;18.10;99.90
56861;DHT22;42744;51.094;3.490;2022-10-17T15:59:44;18.10;99.90
56861;DHT22;42744;51.094;3.490;2022-10-17T16:02:16;18.00;99.90
56861;DHT22;42744;51.094;3.490;2022-10-17T16:04:42;18.00;99.90
56861;DHT22;42744;51.094;3.490;2022-10-17T16:07:09;17.90;99.90
56861;DHT22;42744;51.094;3.490;2022-10-17T16:09:35;17.90;99.90
56861;DHT22;42744;51.094;3.490;2022-10-17T16:12:05;17.80;99.90
56861;DHT22;42744;51.094;3.490;2022-10-17T16:14:34;17.80;99.90
56861;DHT22;42744;51.094;3.490;2022-10-17T16:17:00;17.70;99.90
56861;DHT22;42744;51.094;3.490;2022-10-17T16:19:27;17.70;99.90
56861;DHT22;42744;51.094;3.490;2022-10-17T16:21:58;17.60;99.90
56861;DHT22;42744;51.094;3.490;2022-10-17T16:24:26;17.60;99.90
56861;DHT22;42744;51.094;3.490;2022-10-17T16:26:52;17.60;99.90
56861;DHT22;42744;51.094;3.490;2022-10-17T16:29:18;17.60;99.90
56861;DHT22;42744;51.094;3.490;2022-10-17T16:31:44;17.60;99.90
56861;DHT22;42744;51.094;3.490;2022-10-17T16:34:14;17.50;99.90
56861;DHT22;42744;51.094;3.490;2022-10-17T16:36:41;17.50;99.90
56861;DHT22;42744;51.094;3.490;2022-10-17T16:39:07;17.40;99.90
56861;DHT22;42744;51.094;3.490;2022-10-17T16:41:35;17.40;99.90
56861;DHT22;42744;51.094;3.490;2022-10-17T16:44:07;17.40;99.90
56861;DHT22;42744;51.094;3.490;2022-10-17T16:46:35;17.30;99.90
56861;DHT22;42744;51.094;3.490;2022-10-17T16:49:05;17.30;99.90
56861;DHT22;42744;51.094;3.490;2022-10-17T16:51:32;17.20;99.90
56861;DHT22;42744;51.094;3.490;2022-10-17T16:54:01;17.20;99.90
56861;DHT22;42744;51.094;3.490;2022-10-17T16:56:29;17.10;99.90
56861;DHT22;42744;51.094;3.490;2022-10-17T16:58:58;17.10;99.90
56861;DHT22;42744;51.094;3.490;2022-10-17T17:01:25;17.10;99.90
56861;DHT22;42744;51.094;3.490;2022-10-17T17:03:52;17.00;99.90
56861;DHT22;42744;51.094;3.490;2022-10-17T17:06:23;17.00;99.90
56861;DHT22;42744;51.094;3.490;2022-10-17T17:08:52;17.00;99.90
56861;DHT22;42744;51.094;3.490;2022-10-17T17:11:19;16.90;99.90
56861;DHT22;42744;51.094;3.490;2022-10-17T17:13:46;16.90;99.90
56861;DHT22;42744;51.094;3.490;2022-10-17T17:16:23;16.90;99.90
56861;DHT22;42744;51.094;3.490;2022-10-17T17:18:57;16.80;99.90
56861;DHT22;42744;51.094;3.490;2022-10-17T17:21:23;16.80;99.90
56861;DHT22;42744;51.094;3.490;2022-10-17T17:23:49;16.70;99.90
56861;DHT22;42744;51.094;3.490;2022-10-17T17:26:19;16.60;99.90
56861;DHT22;42744;51.094;3.490;2022-10-17T17:28:46;16.60;99.90
56861;DHT22;42744;51.094;3.490;2022-10-17T17:31:15;16.50;99.90
56861;DHT22;42744;51.094;3.490;2022-10-17T17:33:42;16.50;99.90
56861;DHT22;42744;51.094;3.490;2022-10-17T17:36:11;16.50;99.90
56861;DHT22;42744;51.094;3.490;2022-10-17T17:38:38;16.50;99.90
56861;DHT22;42744;51.094;3.490;2022-10-17T17:42:28;16.50;99.90
56861;DHT22;42744;51.094;3.490;2022-10-17T17:44:54;16.50;99.90
56861;DHT22;42744;51.094;3.490;2022-10-17T17:47:20;16.40;99.90
56861;DHT22;42744;51.094;3.490;2022-10-17T17:49:46;16.40;99.90
56861;DHT22;42744;51.094;3.490;2022-10-17T17:52:12;16.40;99.90
56861;DHT22;42744;51.094;3.490;2022-10-17T17:54:38;16.40;99.90
56861;DHT22;42744;51.094;3.490;2022-10-17T17:57:04;16.30;99.90
56861;DHT22;42744;51.094;3.490;2022-10-17T17:59:30;16.30;99.90
56861;DHT22;42744;51.094;3.490;2022-10-17T18:01:56;16.30;99.90
56861;DHT22;42744;51.094;3.490;2022-10-17T18:04:22;16.20;99.90